Byron, Georgia
Current Conditions -  °F | °C
As of 1:53 AM on Sunday 26 Oct 2014 (Local Time) from KMCN Reporting Station
Clear Clear  
Wind Chill: 50°   Ceiling: Unl
Heat Index: 50°   Visibility: 10mi
Dew Point: 49°   Wind: 6mph
Humidity: 96%   Direction: 290°WNW
Pressure: 29.99"   Gusts: NA
Location:  32.65°N, 83.76°W
Report Text: KMCN 260553Z AUTO 29005KT 10SM CLR 10/09 A2999 RMK AO2 SLP153 T01000094 10156 20100 58012 TSNO
Loading
Personal Weather Stations






























Interactive Weather Map
Tropical Storm Tracking
New forecast layout! Learn more

10-Day Weather Forecast

Advertisements
Track Severe Weather on mobile